createdAt,value
2018-08-19T00:00:45.711Z,94.10
2018-08-19T00:03:14.205Z,94.10
2018-08-19T00:05:42.763Z,94.30
2018-08-19T00:08:11.276Z,94.30
2018-08-19T00:10:50.045Z,94.20
2018-08-19T00:13:18.511Z,94.20
2018-08-19T00:15:46.984Z,94.30
2018-08-19T00:18:16.465Z,94.60
2018-08-19T00:20:44.968Z,94.80
2018-08-19T00:23:13.425Z,95.10
2018-08-19T00:25:42.927Z,95.50
2018-08-19T00:28:15.465Z,95.60
2018-08-19T00:30:43.964Z,95.80
2018-08-19T00:33:12.643Z,96.10
2018-08-19T00:35:41.153Z,96.30
2018-08-19T00:38:14.531Z,96.10
2018-08-19T00:40:43.436Z,96.10
2018-08-19T00:43:11.892Z,96.00
2018-08-19T00:45:40.612Z,96.10
2018-08-19T00:48:10.993Z,96.60
2018-08-19T00:50:39.946Z,96.70
2018-08-19T00:53:09.759Z,96.70
2018-08-19T00:55:43.581Z,97.60
2018-08-19T00:58:16.458Z,96.90
2018-08-19T01:00:44.894Z,97.10
2018-08-19T01:03:13.631Z,96.90
2018-08-19T01:05:42.144Z,96.80
2018-08-19T01:08:12.137Z,96.80
2018-08-19T01:10:40.961Z,97.10
2018-08-19T01:13:10.212Z,98.30
2018-08-19T01:15:38.792Z,97.60
2018-08-19T01:18:07.407Z,97.20
2018-08-19T01:20:36.231Z,97.30
2018-08-19T01:23:11.304Z,97.60
2018-08-19T01:25:39.803Z,97.60
2018-08-19T01:28:08.416Z,97.60
2018-08-19T01:30:36.895Z,97.80
2018-08-19T01:33:05.320Z,98.20
2018-08-19T01:35:39.079Z,98.40
2018-08-19T01:38:07.564Z,98.70
2018-08-19T01:40:36.194Z,98.50
2018-08-19T01:43:06.202Z,98.50
2018-08-19T01:45:34.997Z,98.20
2018-08-19T01:48:03.643Z,98.30
2018-08-19T01:50:32.068Z,98.60
2018-08-19T01:53:00.889Z,98.80
2018-08-19T01:55:30.966Z,98.70
2018-08-19T01:57:59.474Z,98.90
2018-08-19T02:00:27.938Z,98.50
2018-08-19T02:03:02.820Z,98.60
2018-08-19T02:05:31.301Z,98.80
2018-08-19T02:08:04.040Z,99.10
2018-08-19T02:10:33.927Z,99.00
2018-08-19T02:13:02.721Z,99.20
2018-08-19T02:15:32.044Z,99.30
2018-08-19T02:18:03.832Z,99.00
2018-08-19T02:20:37.551Z,99.00
2018-08-19T02:23:07.577Z,99.10
2018-08-19T02:25:40.081Z,99.30
2018-08-19T02:28:09.664Z,99.10
2018-08-19T02:30:51.565Z,99.10
2018-08-19T02:33:20.868Z,99.30
2018-08-19T02:35:52.089Z,99.60
2018-08-19T02:38:20.594Z,99.90
2018-08-19T02:40:52.477Z,99.80
2018-08-19T02:43:21.760Z,99.70
2018-08-19T02:45:50.260Z,99.80
2018-08-19T02:48:20.401Z,99.90
2018-08-19T02:50:48.874Z,99.90
2018-08-19T02:53:17.352Z,99.90
2018-08-19T02:55:45.884Z,99.80
2018-08-19T02:58:19.701Z,99.80
2018-08-19T03:00:48.134Z,99.70
2018-08-19T03:03:16.802Z,99.90
2018-08-19T03:05:49.449Z,99.90
2018-08-19T03:08:18.240Z,99.90
2018-08-19T03:10:46.958Z,99.90
2018-08-19T03:13:15.400Z,99.90
2018-08-19T03:15:43.827Z,99.90
2018-08-19T03:18:12.245Z,99.90
2018-08-19T03:20:40.687Z,99.90
2018-08-19T03:23:10.080Z,99.90
2018-08-19T03:25:38.501Z,99.90
2018-08-19T03:28:07.154Z,99.90
2018-08-19T03:30:35.592Z,99.90
2018-08-19T03:33:04.040Z,99.90
2018-08-19T03:35:32.498Z,99.90
2018-08-19T03:38:06.095Z,99.90
2018-08-19T03:40:34.461Z,99.90
2018-08-19T03:43:02.943Z,99.90
2018-08-19T03:45:31.768Z,99.90
2018-08-19T03:48:00.205Z,99.90
2018-08-19T03:50:28.653Z,99.90
2018-08-19T03:52:57.635Z,99.90
2018-08-19T03:55:27.548Z,99.90
2018-08-19T03:58:01.647Z,99.90
2018-08-19T04:00:32.052Z,99.90
2018-08-19T04:03:00.549Z,99.90
2018-08-19T04:05:44.100Z,99.90
2018-08-19T04:08:13.692Z,99.90
2018-08-19T04:10:43.197Z,99.90
2018-08-19T04:13:30.020Z,99.90
2018-08-19T04:15:59.617Z,99.90
2018-08-19T04:18:35.161Z,99.90
2018-08-19T04:21:07.013Z,99.90
2018-08-19T04:23:36.016Z,99.90
2018-08-19T04:26:04.912Z,99.90
2018-08-19T04:28:36.005Z,99.90
2018-08-19T04:31:09.489Z,99.90
2018-08-19T04:33:40.903Z,99.90
2018-08-19T04:36:11.281Z,99.90
2018-08-19T04:38:39.952Z,99.90
2018-08-19T04:41:08.412Z,99.90
2018-08-19T04:43:36.948Z,99.90
2018-08-19T04:46:05.440Z,99.90
2018-08-19T04:48:33.890Z,99.90
2018-08-19T04:51:02.311Z,99.90
2018-08-19T04:53:33.143Z,99.90
2018-08-19T04:56:01.669Z,99.90
2018-08-19T04:58:30.160Z,99.90
2018-08-19T05:00:58.805Z,99.90
2018-08-19T05:03:27.248Z,99.90
2018-08-19T05:05:58.999Z,99.60
2018-08-19T05:08:27.838Z,99.00
2018-08-19T05:10:56.156Z,98.80
2018-08-19T05:13:24.627Z,96.90
2018-08-19T05:15:53.118Z,96.20
2018-08-19T05:18:21.547Z,94.50
2018-08-19T05:20:50.134Z,93.70
2018-08-19T05:23:18.753Z,92.80
2018-08-19T05:25:56.468Z,90.60
2018-08-19T05:28:24.975Z,89.40
2018-08-19T05:30:53.458Z,85.50
2018-08-19T05:33:21.935Z,84.30
2018-08-19T05:35:50.584Z,80.90
2018-08-19T05:38:19.184Z,78.80
2018-08-19T05:40:52.945Z,74.80
2018-08-19T05:43:22.698Z,71.90
2018-08-19T05:45:54.568Z,69.90
2018-08-19T05:48:23.442Z,70.30
2018-08-19T05:50:52.256Z,68.30
2018-08-19T05:53:21.172Z,67.60
2018-08-19T05:55:49.683Z,65.40
2018-08-19T05:58:18.493Z,62.80
2018-08-19T06:00:49.996Z,61.80
2018-08-19T06:03:18.501Z,60.60
2018-08-19T06:05:46.939Z,59.20
2018-08-19T06:08:16.611Z,57.50
2018-08-19T06:10:45.158Z,56.80
2018-08-19T06:13:13.692Z,56.30
2018-08-19T06:15:42.186Z,55.00
2018-08-19T06:18:10.654Z,54.30
2018-08-19T06:20:39.145Z,53.90
2018-08-19T06:23:07.646Z,53.00
2018-08-19T06:25:36.154Z,51.50
2018-08-19T06:28:04.727Z,49.70
2018-08-19T06:30:33.394Z,48.20
2018-08-19T06:33:01.866Z,47.20
2018-08-19T06:35:30.330Z,46.30
2018-08-19T06:37:58.779Z,45.30
2018-08-19T06:40:27.199Z,44.60
2018-08-19T06:42:55.677Z,42.90
2018-08-19T06:45:24.181Z,42.80
2018-08-19T06:47:52.757Z,42.30
2018-08-19T06:50:31.275Z,42.60
2018-08-19T06:52:59.724Z,41.70
2018-08-19T06:55:28.367Z,41.40
2018-08-19T06:57:58.024Z,41.20
2018-08-19T07:00:28.587Z,40.90
2018-08-19T07:03:00.203Z,40.30
2018-08-19T07:05:29.065Z,39.70
2018-08-19T07:07:57.793Z,39.00
2018-08-19T07:10:41.364Z,38.50
2018-08-19T07:13:15.055Z,37.70
2018-08-19T07:15:44.433Z,37.00
2018-08-19T07:18:14.615Z,37.60
2018-08-19T07:20:43.882Z,37.40
2018-08-19T07:23:13.331Z,36.90
2018-08-19T07:25:44.562Z,36.30
2018-08-19T07:28:14.329Z,35.60
2018-08-19T07:30:43.341Z,35.70
2018-08-19T07:33:12.537Z,35.10
2018-08-19T07:35:41.014Z,34.80
2018-08-19T07:38:09.513Z,34.20
2018-08-19T07:40:38.230Z,34.00
2018-08-19T07:43:06.741Z,34.00
2018-08-19T07:45:35.174Z,33.50
2018-08-19T07:48:03.692Z,33.20
2018-08-19T07:50:32.161Z,32.70
2018-08-19T07:53:00.626Z,32.20
2018-08-19T07:55:29.083Z,30.90
2018-08-19T07:57:57.619Z,30.50
2018-08-19T08:00:31.245Z,29.90
2018-08-19T08:02:59.833Z,29.70
2018-08-19T08:05:33.009Z,29.60
2018-08-19T08:08:01.503Z,29.20
2018-08-19T08:10:30.188Z,28.70
2018-08-19T08:13:08.961Z,28.30
2018-08-19T08:15:49.583Z,28.20
2018-08-19T08:18:18.152Z,28.10
2018-08-19T08:20:47.005Z,28.00
2018-08-19T08:23:19.483Z,27.80
2018-08-19T08:25:48.409Z,27.40
2018-08-19T08:28:17.500Z,27.30
2018-08-19T08:30:46.695Z,27.60
2018-08-19T08:33:15.178Z,27.30
2018-08-19T08:35:50.879Z,26.90
2018-08-19T08:38:19.442Z,27.40
2018-08-19T08:40:48.107Z,27.90
2018-08-19T08:43:16.533Z,28.40
2018-08-19T08:45:45.042Z,28.80
2018-08-19T08:48:13.542Z,29.50
2018-08-19T08:50:41.987Z,29.80
2018-08-19T08:53:10.615Z,30.40
2018-08-19T08:55:39.167Z,30.80
2018-08-19T08:58:07.954Z,30.30
2018-08-19T09:00:36.447Z,29.80
2018-08-19T09:03:04.950Z,29.20
2018-08-19T09:05:33.676Z,28.60
2018-08-19T09:08:02.219Z,27.70
2018-08-19T09:10:30.674Z,27.20
2018-08-19T09:12:59.181Z,26.90
2018-08-19T09:15:27.774Z,26.80
2018-08-19T09:17:56.337Z,27.20
2018-08-19T09:20:24.807Z,27.40
2018-08-19T09:22:53.447Z,27.20
2018-08-19T09:25:21.859Z,26.20
2018-08-19T09:27:50.354Z,25.60
2018-08-19T09:30:40.101Z,25.40
2018-08-19T09:33:09.799Z,26.00
2018-08-19T09:35:39.241Z,26.60
2018-08-19T09:38:19.834Z,27.70
2018-08-19T09:40:48.498Z,27.90
2018-08-19T09:43:17.217Z,29.10
2018-08-19T09:45:46.329Z,29.60
2018-08-19T09:48:15.698Z,30.80
2018-08-19T09:50:44.714Z,31.30
2018-08-19T09:53:13.364Z,31.40
2018-08-19T09:55:43.814Z,30.90
2018-08-19T09:58:20.198Z,29.80
2018-08-19T10:00:54.165Z,29.50
2018-08-19T10:03:22.828Z,29.70
2018-08-19T10:05:51.327Z,29.90
2018-08-19T10:08:23.916Z,29.90
2018-08-19T10:10:52.709Z,29.60
2018-08-19T10:13:21.181Z,28.90
2018-08-19T10:15:50.255Z,28.10
2018-08-19T10:18:18.816Z,27.90
2018-08-19T10:20:47.305Z,27.70
2018-08-19T10:23:15.800Z,27.10
2018-08-19T10:25:44.304Z,26.30
2018-08-19T10:28:13.751Z,26.30
2018-08-19T10:30:50.490Z,25.70
2018-08-19T10:33:21.407Z,25.20
2018-08-19T10:35:49.965Z,24.50
2018-08-19T10:38:18.425Z,24.30
2018-08-19T10:40:52.941Z,25.20
2018-08-19T10:43:21.623Z,25.60
2018-08-19T10:45:50.093Z,26.20
2018-08-19T10:48:18.569Z,26.90
2018-08-19T10:50:47.022Z,27.30
2018-08-19T10:53:20.925Z,27.10
2018-08-19T10:55:49.390Z,27.40
2018-08-19T10:58:17.838Z,27.60
2018-08-19T11:00:46.652Z,27.50
2018-08-19T11:03:19.869Z,27.30
2018-08-19T11:05:50.047Z,27.00
2018-08-19T11:08:18.569Z,27.90
2018-08-19T11:10:47.553Z,28.50
2018-08-19T11:13:19.397Z,28.90
2018-08-19T11:15:50.076Z,30.00
2018-08-19T11:18:38.182Z,30.60
2018-08-19T11:21:09.263Z,32.60
2018-08-19T11:23:40.891Z,33.20
2018-08-19T11:26:09.998Z,33.50
2018-08-19T11:28:41.922Z,33.90
2018-08-19T11:31:16.971Z,35.00
2018-08-19T11:33:45.750Z,35.40
2018-08-19T11:36:14.393Z,35.50
2018-08-19T11:38:46.870Z,35.70
2018-08-19T11:41:15.358Z,36.00
2018-08-19T11:43:45.017Z,35.90
2018-08-19T11:46:13.788Z,36.20
2018-08-19T11:48:42.719Z,36.60
2018-08-19T11:51:11.288Z,36.00
2018-08-19T11:53:39.871Z,36.40
2018-08-19T11:56:08.543Z,36.60
2018-08-19T11:58:44.476Z,36.80
2018-08-19T12:01:16.255Z,37.00
2018-08-19T12:03:58.668Z,36.90
2018-08-19T12:06:29.499Z,37.30
2018-08-19T12:09:00.404Z,37.60
2018-08-19T12:11:32.003Z,37.00
2018-08-19T12:14:03.483Z,36.80
2018-08-19T12:16:35.685Z,36.90
2018-08-19T12:19:08.397Z,37.10
2018-08-19T12:21:43.717Z,37.50
2018-08-19T12:24:18.595Z,37.60
2018-08-19T12:26:47.046Z,37.50
2018-08-19T12:29:15.614Z,37.10
2018-08-19T12:31:44.070Z,37.20
2018-08-19T12:34:12.553Z,37.50
2018-08-19T12:36:41.092Z,37.50
2018-08-19T12:39:10.528Z,37.10
2018-08-19T12:41:48.535Z,36.90
2018-08-19T12:44:17.013Z,37.10
2018-08-19T12:46:59.741Z,37.00
2018-08-19T12:49:28.276Z,37.20
2018-08-19T12:51:56.896Z,37.20
2018-08-19T12:54:25.476Z,37.40
2018-08-19T12:56:54.387Z,37.50
2018-08-19T12:59:23.054Z,37.70
2018-08-19T13:01:51.637Z,37.70
2018-08-19T13:04:20.135Z,37.70
2018-08-19T13:07:15.438Z,37.20
2018-08-19T13:09:48.549Z,37.60
2018-08-19T13:12:17.325Z,38.70
2018-08-19T13:14:45.792Z,38.00
2018-08-19T13:17:14.654Z,37.70
2018-08-19T13:19:50.478Z,38.10
2018-08-19T13:22:18.948Z,38.10
2018-08-19T13:24:47.416Z,37.90
2018-08-19T13:27:15.847Z,37.80
2018-08-19T13:29:44.325Z,37.60
2018-08-19T13:32:12.955Z,37.90
2018-08-19T13:34:41.642Z,37.90
2018-08-19T13:37:10.182Z,38.10
2018-08-19T13:39:38.684Z,38.00
2018-08-19T13:42:07.443Z,37.80
2018-08-19T13:44:35.940Z,37.60
2018-08-19T13:47:04.437Z,37.70
2018-08-19T13:49:33.013Z,38.00
2018-08-19T13:52:03.271Z,38.00
2018-08-19T13:54:31.775Z,38.60
2018-08-19T13:57:00.288Z,38.30
2018-08-19T13:59:28.733Z,38.40
2018-08-19T14:01:57.221Z,38.40
2018-08-19T14:04:25.671Z,38.30
2018-08-19T14:06:54.109Z,38.50
2018-08-19T14:09:22.669Z,38.70
2018-08-19T14:11:51.109Z,38.40
2018-08-19T14:14:19.547Z,38.60
2018-08-19T14:16:48.012Z,38.60
2018-08-19T14:19:16.495Z,38.60
2018-08-19T14:21:44.949Z,38.40
2018-08-19T14:24:13.384Z,38.50
2018-08-19T14:26:41.901Z,38.70
2018-08-19T14:29:10.528Z,39.10
2018-08-19T14:31:38.996Z,39.20
2018-08-19T14:34:07.455Z,39.40
2018-08-19T14:36:35.952Z,39.20
2018-08-19T14:39:05.622Z,39.30
2018-08-19T14:41:34.095Z,39.30
2018-08-19T14:44:04.405Z,39.10
2018-08-19T14:46:33.674Z,39.30
2018-08-19T14:49:04.514Z,39.50
2018-08-19T14:51:55.325Z,39.20
2018-08-19T14:54:24.068Z,39.70
2018-08-19T14:56:52.550Z,39.30
2018-08-19T14:59:21.095Z,39.20
2018-08-19T15:01:49.565Z,39.00
2018-08-19T15:04:18.616Z,38.80
2018-08-19T15:06:47.775Z,38.80
2018-08-19T15:09:24.893Z,38.70
2018-08-19T15:11:54.060Z,38.50
2018-08-19T15:14:22.610Z,38.80
2018-08-19T15:16:52.993Z,39.00
2018-08-19T15:19:21.441Z,38.70
2018-08-19T15:21:52.953Z,38.30
2018-08-19T15:24:21.408Z,38.60
2018-08-19T15:26:49.953Z,38.40
2018-08-19T15:29:22.638Z,37.80
2018-08-19T15:31:51.352Z,38.30
2018-08-19T15:34:20.012Z,38.30
2018-08-19T15:36:49.137Z,38.30
2018-08-19T15:39:17.699Z,38.50
2018-08-19T15:41:46.577Z,38.30
2018-08-19T15:44:15.104Z,38.50
2018-08-19T15:46:45.416Z,38.50
2018-08-19T15:49:13.937Z,38.90
2018-08-19T15:51:42.442Z,39.10
2018-08-19T15:54:11.272Z,39.70
2018-08-19T15:56:39.785Z,39.80
2018-08-19T15:59:09.835Z,40.00
2018-08-19T16:01:39.158Z,40.30
2018-08-19T16:04:14.054Z,40.30
2018-08-19T16:06:44.154Z,40.70
2018-08-19T16:09:13.989Z,41.20
2018-08-19T16:11:42.767Z,41.40
2018-08-19T16:14:29.273Z,41.40
2018-08-19T16:16:59.210Z,41.40
2018-08-19T16:19:27.743Z,41.60
2018-08-19T16:21:57.514Z,41.80
2018-08-19T16:24:26.841Z,42.00
2018-08-19T16:26:55.326Z,42.90
2018-08-19T16:29:24.063Z,42.40
2018-08-19T16:31:52.575Z,42.60
2018-08-19T16:34:21.038Z,42.60
2018-08-19T16:36:49.489Z,42.10
2018-08-19T16:39:18.743Z,43.40
2018-08-19T16:41:47.213Z,42.90
2018-08-19T16:44:15.715Z,43.30
2018-08-19T16:46:44.219Z,43.60
2018-08-19T16:49:12.769Z,43.70
2018-08-19T16:51:41.280Z,43.70
2018-08-19T16:54:09.837Z,43.80
2018-08-19T16:56:38.282Z,43.80
2018-08-19T16:59:06.785Z,44.10
2018-08-19T17:01:35.364Z,44.20
2018-08-19T17:04:03.983Z,44.30
2018-08-19T17:06:32.482Z,44.40
2018-08-19T17:09:01.049Z,44.60
2018-08-19T17:11:29.602Z,44.80
2018-08-19T17:13:58.063Z,44.80
2018-08-19T17:16:26.617Z,45.10
2018-08-19T17:18:55.181Z,45.30
2018-08-19T17:21:23.704Z,45.40
2018-08-19T17:23:52.761Z,45.50
2018-08-19T17:26:23.382Z,45.80
2018-08-19T17:28:52.104Z,45.90
2018-08-19T17:31:20.973Z,46.00
2018-08-19T17:33:49.484Z,46.10
2018-08-19T17:36:27.127Z,46.10
2018-08-19T17:38:55.727Z,46.40
2018-08-19T17:41:24.934Z,46.50
2018-08-19T17:43:53.417Z,46.50
2018-08-19T17:46:21.996Z,46.50
2018-08-19T17:48:50.518Z,47.40
2018-08-19T17:51:27.417Z,47.60
2018-08-19T17:53:55.923Z,47.80
2018-08-19T17:56:24.517Z,48.20
2018-08-19T17:58:53.040Z,48.40
2018-08-19T18:01:22.129Z,49.30
2018-08-19T18:03:50.675Z,49.00
2018-08-19T18:06:19.303Z,49.40
2018-08-19T18:08:49.393Z,49.80
2018-08-19T18:11:18.144Z,50.00
2018-08-19T18:13:46.718Z,50.20
2018-08-19T18:16:15.688Z,50.40
2018-08-19T18:18:44.873Z,50.70
2018-08-19T18:21:13.576Z,51.00
2018-08-19T18:23:45.349Z,51.40
2018-08-19T18:26:13.897Z,51.50
2018-08-19T18:28:45.072Z,52.00
2018-08-19T18:31:13.626Z,52.20
2018-08-19T18:33:50.355Z,52.60
2018-08-19T18:36:22.316Z,52.70
2018-08-19T18:38:50.954Z,53.00
2018-08-19T18:41:52.191Z,53.40
2018-08-19T18:44:20.659Z,53.70
2018-08-19T18:46:49.162Z,54.00
2018-08-19T18:49:17.710Z,54.30
2018-08-19T18:51:48.001Z,54.70
2018-08-19T18:54:30.380Z,55.20
2018-08-19T18:56:59.919Z,55.30
2018-08-19T18:59:28.459Z,55.60
2018-08-19T19:01:59.325Z,55.80
2018-08-19T19:04:27.852Z,56.30
2018-08-19T19:06:56.487Z,56.60
2018-08-19T19:09:25.451Z,56.60
2018-08-19T19:11:54.217Z,57.00
2018-08-19T19:14:22.796Z,57.40
2018-08-19T19:16:53.364Z,57.50
2018-08-19T19:19:22.087Z,57.90
2018-08-19T19:21:56.640Z,58.10
2018-08-19T19:24:40.557Z,58.30
2018-08-19T19:27:09.942Z,58.40
2018-08-19T19:29:38.863Z,58.80
2018-08-19T19:32:16.365Z,59.10
2018-08-19T19:34:45.137Z,59.30
2018-08-19T19:37:14.228Z,59.70
2018-08-19T19:39:43.428Z,59.90
2018-08-19T19:42:13.748Z,60.20
2018-08-19T19:44:42.347Z,60.50
2018-08-19T19:47:11.165Z,60.80
2018-08-19T19:49:47.228Z,61.10
2018-08-19T19:52:15.622Z,61.60
2018-08-19T19:54:44.113Z,62.00
2018-08-19T19:57:12.631Z,62.70
2018-08-19T19:59:41.075Z,63.00
2018-08-19T20:02:16.512Z,63.00
2018-08-19T20:04:45.220Z,63.20
2018-08-19T20:07:13.941Z,64.00
2018-08-19T20:09:42.465Z,64.30
2018-08-19T20:12:17.857Z,64.50
2018-08-19T20:14:49.029Z,64.70
2018-08-19T20:17:18.520Z,65.10
2018-08-19T20:19:47.012Z,65.40
2018-08-19T20:22:17.314Z,65.10
2018-08-19T20:24:46.091Z,65.30
2018-08-19T20:27:14.984Z,65.40
2018-08-19T20:29:43.511Z,65.60
2018-08-19T20:32:12.050Z,65.80
2018-08-19T20:34:40.527Z,65.90
2018-08-19T20:37:09.052Z,66.00
2018-08-19T20:39:37.576Z,66.30
2018-08-19T20:42:06.638Z,66.50
2018-08-19T20:44:36.822Z,66.70
2018-08-19T20:47:07.228Z,67.10
2018-08-19T20:49:35.738Z,67.20
2018-08-19T20:52:04.282Z,68.30
2018-08-19T20:54:32.784Z,67.90
2018-08-19T20:57:01.429Z,68.10
2018-08-19T20:59:34.019Z,68.30
2018-08-19T21:02:03.066Z,68.60
2018-08-19T21:04:31.617Z,68.90
2018-08-19T21:07:02.693Z,69.40
2018-08-19T21:09:32.561Z,70.00
2018-08-19T21:12:01.148Z,70.40
2018-08-19T21:14:30.038Z,70.60
2018-08-19T21:16:59.388Z,71.00
2018-08-19T21:19:27.842Z,71.40
2018-08-19T21:21:56.338Z,71.70
2018-08-19T21:24:24.834Z,71.70
2018-08-19T21:26:59.597Z,71.90
2018-08-19T21:29:28.774Z,72.40
2018-08-19T21:31:57.236Z,72.60
2018-08-19T21:34:25.725Z,73.10
2018-08-19T21:36:54.184Z,73.60
2018-08-19T21:39:22.776Z,74.10
2018-08-19T21:41:53.197Z,74.30
2018-08-19T21:44:21.652Z,74.90
2018-08-19T21:46:50.264Z,75.30
2018-08-19T21:49:18.697Z,75.90
2018-08-19T21:51:47.272Z,76.20
2018-08-19T21:54:16.682Z,76.60
2018-08-19T21:56:45.170Z,76.70
2018-08-19T21:59:22.865Z,76.80
2018-08-19T22:01:55.950Z,77.00
2018-08-19T22:04:24.858Z,77.00
2018-08-19T22:06:53.426Z,77.20
2018-08-19T22:09:29.756Z,77.60
2018-08-19T22:11:59.207Z,78.10
2018-08-19T22:14:28.061Z,78.20
2018-08-19T22:17:01.969Z,78.50
2018-08-19T22:19:30.897Z,78.20
2018-08-19T22:21:59.498Z,79.20
2018-08-19T22:24:28.017Z,79.20
2018-08-19T22:27:03.449Z,79.40
2018-08-19T22:29:31.926Z,79.80
2018-08-19T22:32:00.384Z,79.90
2018-08-19T22:34:28.804Z,80.00
2018-08-19T22:36:57.289Z,80.30
2018-08-19T22:39:25.764Z,80.60
2018-08-19T22:41:54.778Z,81.40
2018-08-19T22:44:23.243Z,81.00
2018-08-19T22:46:51.687Z,81.00
2018-08-19T22:49:20.369Z,81.10
2018-08-19T22:51:48.814Z,81.10
2018-08-19T22:54:17.323Z,81.00
2018-08-19T22:56:45.829Z,81.10
2018-08-19T22:59:14.287Z,81.00
2018-08-19T23:01:47.912Z,81.00
2018-08-19T23:04:16.367Z,81.10
2018-08-19T23:06:44.800Z,81.20
2018-08-19T23:09:13.301Z,81.10
2018-08-19T23:11:47.242Z,80.80
2018-08-19T23:14:26.983Z,81.20
2018-08-19T23:16:55.481Z,81.60
2018-08-19T23:19:23.967Z,81.50
2018-08-19T23:21:52.437Z,81.70
2018-08-19T23:24:20.916Z,81.70
2018-08-19T23:26:49.621Z,82.20
2018-08-19T23:29:18.106Z,82.40
2018-08-19T23:31:46.552Z,82.50
2018-08-19T23:34:15.032Z,82.50
2018-08-19T23:36:43.473Z,82.70
2018-08-19T23:39:11.920Z,82.90
2018-08-19T23:41:41.034Z,83.00
2018-08-19T23:44:09.776Z,83.50
2018-08-19T23:46:38.226Z,83.40
2018-08-19T23:49:06.692Z,83.40
2018-08-19T23:51:35.110Z,83.60
2018-08-19T23:54:04.310Z,83.60
2018-08-19T23:56:33.010Z,83.70
2018-08-19T23:59:01.677Z,83.60
